Airfield :
LOGIN :

Register | Disclaimer

   EN    FR    IT 

 










Legend :    VFR   Marginal VFR   IFR   Intensive IFR   Very Intensive IFR
Visi :
Ceiling :
>= 8 km
>= 3000ft
5 to 8 km
1000 to 3000 ft
1500m to 5 km
500 to 1000 ft
800 to 1500m
200 to 500 ft
< 800m
< 200 ft
Symbols :   Thunderstorms  Fog  Heavy snow  Heavy precipitations  Wind > 20 kt
SIGMETs :     Misc.  Thunderstorms  Icing  Turbulence  Mountain Waves  Volcanic Ashes







- Airport Elevation : 19 ft
- IATA code : BEB
- Download approach charts


EGPL - Benbecula

CURRENT METAR :
  • 170350Z AUTO 17024KT 9999 FEW017/// SCT025/// BKN029/// 10/08 Q0998

EXPIRED METARs :
  • 170320Z AUTO 18024G35KT 9999 BKN014/// OVC020/// 10/08 Q0998
  • 170250Z AUTO 18025KT 9999 -RA FEW013/// OVC022/// 10/08 Q0999
  • 170220Z AUTO 18026KT 9999 -RA SCT005/// BKN010/// OVC019/// 10/08 Q0999 RERA
  • 170150Z AUTO 17022KT 3900 RA BKN004/// BKN015/// OVC042/// 10/08 Q0999
  • 170120Z AUTO 17019G29KT 9999 -RA FEW006/// BKN014/// BKN018/// 10/08 Q1000

TAF TAF EGPL
Valid from the 17 at 03:00 until the 17 at 12:00 UTC


170154Z 1703/1712 18018KT 9999 SCT010 BKN020
TEMPO 1703/1712 20025G35KT 6000 RA SHRA BKN010
PROB30
TEMPO 1703/1710 4000 RADZ BKN004
ATIS : +44 1870 604 818
No reported NOTAMs for that airfield.



MET'MAP, your aeronautical weather chart ! - Copyright ORBIFLY December 2007 - Disclaimer

ORBIFLY MET'MAP TEAM :

Programming & Development : Alexandra Zaïnal
Concept & Development : Baudouin d'Aumeries
Co-Development & Prog : Marc-Olivier Méhu
Technical & hardware support : Manuel Goepfert

Contact : metmap@orbifly.com




SOURCES & CREDITS :

   NOAA